sensor_id;sensor_type;location;lat;lon;timestamp;pressure;altitude;pressure_sealevel;temperature;humidity
77725;BME280;66892;53.236;6.550;2023-11-22T00:01:05;102996.59;;;1.16;100.00
77725;BME280;66892;53.236;6.550;2023-11-22T00:03:31;102996.25;;;1.36;100.00
77725;BME280;66892;53.236;6.550;2023-11-22T00:05:58;102992.78;;;1.49;100.00
77725;BME280;66892;53.236;6.550;2023-11-22T00:08:25;103000.09;;;1.54;100.00
77725;BME280;66892;53.236;6.550;2023-11-22T00:10:51;103001.38;;;1.48;100.00
77725;BME280;66892;53.236;6.550;2023-11-22T00:13:17;102995.97;;;1.45;100.00
77725;BME280;66892;53.236;6.550;2023-11-22T00:15:43;102994.06;;;1.42;100.00
77725;BME280;66892;53.236;6.550;2023-11-22T00:18:09;102991.16;;;1.51;100.00
77725;BME280;66892;53.236;6.550;2023-11-22T00:20:35;102992.38;;;1.56;100.00
77725;BME280;66892;53.236;6.550;2023-11-22T00:23:02;102991.81;;;1.60;100.00
77725;BME280;66892;53.236;6.550;2023-11-22T00:25:31;102997.50;;;1.68;100.00
77725;BME280;66892;53.236;6.550;2023-11-22T00:27:57;102994.50;;;1.75;100.00
77725;BME280;66892;53.236;6.550;2023-11-22T00:30:23;102999.94;;;1.78;100.00
77725;BME280;66892;53.236;6.550;2023-11-22T00:32:49;103004.75;;;1.85;100.00
77725;BME280;66892;53.236;6.550;2023-11-22T00:35:15;103012.78;;;1.88;100.00
77725;BME280;66892;53.236;6.550;2023-11-22T00:37:41;103022.63;;;1.92;100.00
77725;BME280;66892;53.236;6.550;2023-11-22T00:40:07;103025.31;;;1.93;100.00
77725;BME280;66892;53.236;6.550;2023-11-22T00:42:38;103025.81;;;1.88;100.00
77725;BME280;66892;53.236;6.550;2023-11-22T00:45:06;103027.91;;;1.80;100.00
77725;BME280;66892;53.236;6.550;2023-11-22T00:47:32;103034.53;;;1.75;100.00
77725;BME280;66892;53.236;6.550;2023-11-22T00:49:58;103024.50;;;1.68;100.00
77725;BME280;66892;53.236;6.550;2023-11-22T00:52:25;103028.97;;;1.57;100.00
77725;BME280;66892;53.236;6.550;2023-11-22T00:54:51;103031.88;;;1.49;100.00
77725;BME280;66892;53.236;6.550;2023-11-22T00:57:17;103034.06;;;1.43;100.00
77725;BME280;66892;53.236;6.550;2023-11-22T00:59:44;103044.50;;;1.43;100.00
77725;BME280;66892;53.236;6.550;2023-11-22T01:02:10;103049.78;;;1.31;100.00
77725;BME280;66892;53.236;6.550;2023-11-22T01:04:36;103049.81;;;1.20;100.00
77725;BME280;66892;53.236;6.550;2023-11-22T01:07:03;103050.88;;;1.10;100.00
77725;BME280;66892;53.236;6.550;2023-11-22T01:09:35;103054.66;;;1.02;100.00
77725;BME280;66892;53.236;6.550;2023-11-22T01:12:01;103065.22;;;0.92;100.00
77725;BME280;66892;53.236;6.550;2023-11-22T01:14:27;103065.72;;;0.86;100.00
77725;BME280;66892;53.236;6.550;2023-11-22T01:16:55;103069.66;;;0.93;100.00
77725;BME280;66892;53.236;6.550;2023-11-22T01:19:21;103070.38;;;1.03;100.00
77725;BME280;66892;53.236;6.550;2023-11-22T01:21:47;103047.75;;;1.02;100.00
77725;BME280;66892;53.236;6.550;2023-11-22T01:24:13;103033.56;;;1.11;100.00
77725;BME280;66892;53.236;6.550;2023-11-22T01:26:39;103023.03;;;1.09;100.00
77725;BME280;66892;53.236;6.550;2023-11-22T01:29:05;103027.50;;;0.98;100.00
77725;BME280;66892;53.236;6.550;2023-11-22T01:31:31;103023.69;;;0.82;100.00
77725;BME280;66892;53.236;6.550;2023-11-22T01:33:59;103020.13;;;0.68;100.00
77725;BME280;66892;53.236;6.550;2023-11-22T01:36:26;103014.16;;;0.58;100.00
77725;BME280;66892;53.236;6.550;2023-11-22T01:38:53;103017.13;;;0.50;100.00
77725;BME280;66892;53.236;6.550;2023-11-22T01:41:19;103018.25;;;0.42;100.00
77725;BME280;66892;53.236;6.550;2023-11-22T01:43:45;103024.84;;;0.37;100.00
77725;BME280;66892;53.236;6.550;2023-11-22T01:46:21;103034.47;;;0.38;100.00
77725;BME280;66892;53.236;6.550;2023-11-22T01:48:48;103047.91;;;0.33;100.00
77725;BME280;66892;53.236;6.550;2023-11-22T01:51:16;103043.16;;;0.27;100.00
77725;BME280;66892;53.236;6.550;2023-11-22T01:53:42;103043.63;;;0.22;100.00
77725;BME280;66892;53.236;6.550;2023-11-22T01:56:08;103055.50;;;0.18;100.00
77725;BME280;66892;53.236;6.550;2023-11-22T01:58:35;103055.06;;;0.12;100.00
77725;BME280;66892;53.236;6.550;2023-11-22T02:01:01;103052.00;;;0.06;100.00
77725;BME280;66892;53.236;6.550;2023-11-22T02:03:27;103049.19;;;0.15;100.00
77725;BME280;66892;53.236;6.550;2023-11-22T02:05:54;103053.13;;;0.21;100.00
77725;BME280;66892;53.236;6.550;2023-11-22T02:08:22;103059.56;;;0.26;100.00
77725;BME280;66892;53.236;6.550;2023-11-22T02:10:57;103058.09;;;0.30;100.00
77725;BME280;66892;53.236;6.550;2023-11-22T02:13:23;103053.78;;;0.42;100.00
77725;BME280;66892;53.236;6.550;2023-11-22T02:15:49;103052.75;;;0.51;100.00
77725;BME280;66892;53.236;6.550;2023-11-22T02:18:15;103042.31;;;0.51;100.00
77725;BME280;66892;53.236;6.550;2023-11-22T02:20:42;103052.09;;;0.42;100.00
77725;BME280;66892;53.236;6.550;2023-11-22T02:23:10;103056.53;;;0.32;100.00
77725;BME280;66892;53.236;6.550;2023-11-22T02:25:37;103061.38;;;0.27;100.00
77725;BME280;66892;53.236;6.550;2023-11-22T02:28:03;103058.44;;;0.23;100.00
77725;BME280;66892;53.236;6.550;2023-11-22T02:30:29;103060.72;;;0.18;100.00
77725;BME280;66892;53.236;6.550;2023-11-22T02:32:55;103041.25;;;0.25;100.00
77725;BME280;66892;53.236;6.550;2023-11-22T02:35:21;103031.28;;;0.31;100.00
77725;BME280;66892;53.236;6.550;2023-11-22T02:37:47;103030.34;;;0.42;100.00
77725;BME280;66892;53.236;6.550;2023-11-22T02:40:17;103029.66;;;0.56;100.00
77725;BME280;66892;53.236;6.550;2023-11-22T02:42:46;103028.28;;;0.61;100.00
77725;BME280;66892;53.236;6.550;2023-11-22T02:45:13;103032.81;;;0.52;100.00
77725;BME280;66892;53.236;6.550;2023-11-22T02:47:40;103031.94;;;0.40;100.00
77725;BME280;66892;53.236;6.550;2023-11-22T02:50:06;103031.63;;;0.24;100.00
77725;BME280;66892;53.236;6.550;2023-11-22T02:52:33;103028.00;;;0.10;100.00
77725;BME280;66892;53.236;6.550;2023-11-22T02:54:59;103039.22;;;-0.03;100.00
77725;BME280;66892;53.236;6.550;2023-11-22T02:57:26;103033.25;;;-0.13;100.00
77725;BME280;66892;53.236;6.550;2023-11-22T02:59:52;103035.94;;;-0.23;100.00
77725;BME280;66892;53.236;6.550;2023-11-22T03:02:18;103045.53;;;-0.34;100.00
77725;BME280;66892;53.236;6.550;2023-11-22T03:04:44;103050.03;;;-0.43;100.00
77725;BME280;66892;53.236;6.550;2023-11-22T03:07:10;103060.19;;;-0.46;100.00
77725;BME280;66892;53.236;6.550;2023-11-22T03:09:36;103059.81;;;-0.50;100.00
77725;BME280;66892;53.236;6.550;2023-11-22T03:12:03;103076.88;;;-0.54;100.00
77725;BME280;66892;53.236;6.550;2023-11-22T03:14:30;103085.47;;;-0.55;100.00
77725;BME280;66892;53.236;6.550;2023-11-22T03:16:56;103086.50;;;-0.53;100.00
77725;BME280;66892;53.236;6.550;2023-11-22T03:19:23;103098.25;;;-0.46;100.00
77725;BME280;66892;53.236;6.550;2023-11-22T03:21:49;103100.69;;;-0.26;100.00
77725;BME280;66892;53.236;6.550;2023-11-22T03:24:16;103113.03;;;-0.24;100.00
77725;BME280;66892;53.236;6.550;2023-11-22T03:26:42;103120.34;;;-0.30;100.00
77725;BME280;66892;53.236;6.550;2023-11-22T03:29:08;103124.94;;;-0.37;100.00
77725;BME280;66892;53.236;6.550;2023-11-22T03:31:35;103125.25;;;-0.44;100.00
77725;BME280;66892;53.236;6.550;2023-11-22T03:34:01;103121.75;;;-0.45;100.00
77725;BME280;66892;53.236;6.550;2023-11-22T03:36:27;103118.44;;;-0.32;100.00
77725;BME280;66892;53.236;6.550;2023-11-22T03:38:53;103120.28;;;-0.20;100.00
77725;BME280;66892;53.236;6.550;2023-11-22T03:41:19;103111.56;;;-0.20;100.00
77725;BME280;66892;53.236;6.550;2023-11-22T03:43:46;103101.06;;;-0.10;100.00
77725;BME280;66892;53.236;6.550;2023-11-22T03:46:12;103100.63;;;-0.16;100.00
77725;BME280;66892;53.236;6.550;2023-11-22T03:48:40;103111.88;;;-0.27;100.00
77725;BME280;66892;53.236;6.550;2023-11-22T03:51:06;103108.44;;;-0.38;100.00
77725;BME280;66892;53.236;6.550;2023-11-22T03:53:33;103107.06;;;-0.44;100.00
77725;BME280;66892;53.236;6.550;2023-11-22T03:55:59;103103.22;;;-0.49;100.00
77725;BME280;66892;53.236;6.550;2023-11-22T03:58:25;103104.28;;;-0.36;100.00
77725;BME280;66892;53.236;6.550;2023-11-22T04:00:51;103092.09;;;-0.25;100.00
77725;BME280;66892;53.236;6.550;2023-11-22T04:03:18;103099.03;;;-0.14;100.00
77725;BME280;66892;53.236;6.550;2023-11-22T04:05:46;103100.72;;;-0.15;100.00
77725;BME280;66892;53.236;6.550;2023-11-22T04:08:12;103106.53;;;-0.29;100.00
77725;BME280;66892;53.236;6.550;2023-11-22T04:10:38;103100.88;;;-0.46;100.00
77725;BME280;66892;53.236;6.550;2023-11-22T04:13:04;103109.66;;;-0.56;100.00
77725;BME280;66892;53.236;6.550;2023-11-22T04:15:30;103104.28;;;-0.69;100.00
77725;BME280;66892;53.236;6.550;2023-11-22T04:17:56;103102.66;;;-0.79;100.00
77725;BME280;66892;53.236;6.550;2023-11-22T04:20:22;103095.31;;;-0.84;100.00
77725;BME280;66892;53.236;6.550;2023-11-22T04:22:49;103086.91;;;-0.92;100.00
77725;BME280;66892;53.236;6.550;2023-11-22T04:25:16;103100.56;;;-0.94;100.00
77725;BME280;66892;53.236;6.550;2023-11-22T04:27:42;103094.34;;;-0.96;100.00
77725;BME280;66892;53.236;6.550;2023-11-22T04:30:09;103106.66;;;-0.94;100.00
77725;BME280;66892;53.236;6.550;2023-11-22T04:32:40;103098.88;;;-0.94;100.00
77725;BME280;66892;53.236;6.550;2023-11-22T04:35:07;103094.59;;;-0.93;100.00
77725;BME280;66892;53.236;6.550;2023-11-22T04:37:33;103096.50;;;-0.91;100.00
77725;BME280;66892;53.236;6.550;2023-11-22T04:40:01;103097.16;;;-0.72;100.00
77725;BME280;66892;53.236;6.550;2023-11-22T04:42:29;103095.75;;;-0.57;100.00
77725;BME280;66892;53.236;6.550;2023-11-22T04:44:55;103103.78;;;-0.54;100.00
77725;BME280;66892;53.236;6.550;2023-11-22T04:47:21;103106.13;;;-0.57;100.00
77725;BME280;66892;53.236;6.550;2023-11-22T04:49:47;103108.06;;;-0.54;100.00
77725;BME280;66892;53.236;6.550;2023-11-22T04:52:13;103114.31;;;-0.52;100.00
77725;BME280;66892;53.236;6.550;2023-11-22T04:54:40;103115.63;;;-0.57;100.00
77725;BME280;66892;53.236;6.550;2023-11-22T04:57:07;103117.97;;;-0.60;100.00
77725;BME280;66892;53.236;6.550;2023-11-22T04:59:33;103123.84;;;-0.63;100.00
77725;BME280;66892;53.236;6.550;2023-11-22T05:01:59;103120.56;;;-0.60;100.00
77725;BME280;66892;53.236;6.550;2023-11-22T05:04:25;103123.41;;;-0.57;100.00
77725;BME280;66892;53.236;6.550;2023-11-22T05:06:53;103108.88;;;-0.55;100.00
77725;BME280;66892;53.236;6.550;2023-11-22T05:09:19;103111.94;;;-0.49;100.00
77725;BME280;66892;53.236;6.550;2023-11-22T05:11:45;103102.91;;;-0.42;100.00
77725;BME280;66892;53.236;6.550;2023-11-22T05:14:13;103104.16;;;-0.37;100.00
77725;BME280;66892;53.236;6.550;2023-11-22T05:16:39;103107.00;;;-0.34;100.00
77725;BME280;66892;53.236;6.550;2023-11-22T05:19:05;103113.34;;;-0.31;100.00
77725;BME280;66892;53.236;6.550;2023-11-22T05:21:31;103113.47;;;-0.29;100.00
77725;BME280;66892;53.236;6.550;2023-11-22T05:23:58;103118.00;;;-0.27;100.00
77725;BME280;66892;53.236;6.550;2023-11-22T05:26:24;103101.47;;;-0.27;100.00
77725;BME280;66892;53.236;6.550;2023-11-22T05:28:50;103100.34;;;-0.19;100.00
77725;BME280;66892;53.236;6.550;2023-11-22T05:31:20;103100.84;;;-0.02;100.00
77725;BME280;66892;53.236;6.550;2023-11-22T05:33:46;103107.50;;;0.07;100.00
77725;BME280;66892;53.236;6.550;2023-11-22T05:36:12;103111.16;;;0.09;100.00
77725;BME280;66892;53.236;6.550;2023-11-22T05:38:40;103115.69;;;0.11;100.00
77725;BME280;66892;53.236;6.550;2023-11-22T05:41:06;103116.03;;;0.16;100.00
77725;BME280;66892;53.236;6.550;2023-11-22T05:43:32;103103.34;;;0.20;100.00
77725;BME280;66892;53.236;6.550;2023-11-22T05:45:58;103101.09;;;0.25;100.00
77725;BME280;66892;53.236;6.550;2023-11-22T05:48:25;103111.81;;;0.29;100.00
77725;BME280;66892;53.236;6.550;2023-11-22T05:50:51;103114.78;;;0.34;100.00
77725;BME280;66892;53.236;6.550;2023-11-22T05:53:17;103096.00;;;0.38;100.00
77725;BME280;66892;53.236;6.550;2023-11-22T05:55:45;103088.75;;;0.45;100.00
77725;BME280;66892;53.236;6.550;2023-11-22T05:58:11;103083.97;;;0.51;100.00
77725;BME280;66892;53.236;6.550;2023-11-22T06:00:37;103080.25;;;0.60;100.00
77725;BME280;66892;53.236;6.550;2023-11-22T06:03:04;103075.47;;;0.66;100.00
77725;BME280;66892;53.236;6.550;2023-11-22T06:05:31;103089.50;;;0.68;100.00
77725;BME280;66892;53.236;6.550;2023-11-22T06:07:57;103106.03;;;0.68;100.00
77725;BME280;66892;53.236;6.550;2023-11-22T06:10:23;103102.44;;;0.66;100.00
77725;BME280;66892;53.236;6.550;2023-11-22T06:12:50;103107.41;;;0.63;100.00
77725;BME280;66892;53.236;6.550;2023-11-22T06:15:16;103119.66;;;0.64;100.00
77725;BME280;66892;53.236;6.550;2023-11-22T06:17:44;103118.38;;;0.59;100.00
77725;BME280;66892;53.236;6.550;2023-11-22T06:20:11;103116.94;;;0.51;100.00
77725;BME280;66892;53.236;6.550;2023-11-22T06:22:38;103128.91;;;0.49;100.00
77725;BME280;66892;53.236;6.550;2023-11-22T06:25:07;103142.38;;;0.43;100.00
77725;BME280;66892;53.236;6.550;2023-11-22T06:27:34;103148.06;;;0.38;100.00
77725;BME280;66892;53.236;6.550;2023-11-22T06:29:59;103147.00;;;0.36;100.00
77725;BME280;66892;53.236;6.550;2023-11-22T06:32:25;103142.16;;;0.40;100.00
77725;BME280;66892;53.236;6.550;2023-11-22T06:34:51;103143.84;;;0.40;100.00
77725;BME280;66892;53.236;6.550;2023-11-22T06:37:17;103139.56;;;0.40;100.00
77725;BME280;66892;53.236;6.550;2023-11-22T06:39:45;103140.16;;;0.48;100.00
77725;BME280;66892;53.236;6.550;2023-11-22T06:42:11;103134.25;;;0.50;100.00
77725;BME280;66892;53.236;6.550;2023-11-22T06:44:39;103126.75;;;0.55;100.00
77725;BME280;66892;53.236;6.550;2023-11-22T06:47:06;103124.06;;;0.53;100.00
77725;BME280;66892;53.236;6.550;2023-11-22T06:49:33;103119.28;;;0.60;100.00
77725;BME280;66892;53.236;6.550;2023-11-22T06:51:59;103118.38;;;0.59;100.00
77725;BME280;66892;53.236;6.550;2023-11-22T06:54:25;103112.97;;;0.56;100.00
77725;BME280;66892;53.236;6.550;2023-11-22T06:56:53;103105.16;;;0.56;100.00
77725;BME280;66892;53.236;6.550;2023-11-22T06:59:19;103101.06;;;0.60;100.00
77725;BME280;66892;53.236;6.550;2023-11-22T07:01:45;103094.19;;;0.60;100.00
77725;BME280;66892;53.236;6.550;2023-11-22T07:04:11;103096.66;;;0.59;100.00
77725;BME280;66892;53.236;6.550;2023-11-22T07:06:37;103092.13;;;0.56;100.00
77725;BME280;66892;53.236;6.550;2023-11-22T07:09:03;103097.13;;;0.53;100.00
77725;BME280;66892;53.236;6.550;2023-11-22T07:11:29;103093.50;;;0.51;100.00
77725;BME280;66892;53.236;6.550;2023-11-22T07:13:57;103098.38;;;0.46;100.00
77725;BME280;66892;53.236;6.550;2023-11-22T07:16:23;103109.91;;;0.50;100.00
77725;BME280;66892;53.236;6.550;2023-11-22T07:18:50;103113.75;;;0.55;100.00
77725;BME280;66892;53.236;6.550;2023-11-22T07:21:16;103108.88;;;0.60;100.00
77725;BME280;66892;53.236;6.550;2023-11-22T07:23:42;103104.81;;;0.63;100.00
77725;BME280;66892;53.236;6.550;2023-11-22T07:26:10;103091.53;;;0.72;100.00
77725;BME280;66892;53.236;6.550;2023-11-22T07:28:36;103089.72;;;0.82;100.00
77725;BME280;66892;53.236;6.550;2023-11-22T07:31:06;103092.41;;;0.95;100.00
77725;BME280;66892;53.236;6.550;2023-11-22T07:33:33;103094.06;;;1.06;100.00
77725;BME280;66892;53.236;6.550;2023-11-22T07:35:59;103097.91;;;1.12;100.00
77725;BME280;66892;53.236;6.550;2023-11-22T07:38:25;103102.41;;;1.14;100.00
77725;BME280;66892;53.236;6.550;2023-11-22T07:40:51;103111.78;;;1.24;100.00
77725;BME280;66892;53.236;6.550;2023-11-22T07:43:17;103118.00;;;1.26;100.00
77725;BME280;66892;53.236;6.550;2023-11-22T07:45:44;103117.56;;;1.31;100.00
77725;BME280;66892;53.236;6.550;2023-11-22T07:48:11;103134.19;;;1.33;100.00
77725;BME280;66892;53.236;6.550;2023-11-22T07:50:39;103153.34;;;1.34;100.00
77725;BME280;66892;53.236;6.550;2023-11-22T07:53:05;103155.25;;;1.36;100.00
77725;BME280;66892;53.236;6.550;2023-11-22T07:55:31;103164.06;;;1.38;100.00
77725;BME280;66892;53.236;6.550;2023-11-22T07:57:57;103173.03;;;1.42;100.00
77725;BME280;66892;53.236;6.550;2023-11-22T08:00:24;103178.34;;;1.43;100.00
77725;BME280;66892;53.236;6.550;2023-11-22T08:02:50;103176.75;;;1.45;100.00
77725;BME280;66892;53.236;6.550;2023-11-22T08:05:17;103179.69;;;1.50;100.00
77725;BME280;66892;53.236;6.550;2023-11-22T08:07:43;103180.81;;;1.53;100.00
77725;BME280;66892;53.236;6.550;2023-11-22T08:10:11;103173.28;;;1.58;100.00
77725;BME280;66892;53.236;6.550;2023-11-22T08:12:45;103152.28;;;1.68;100.00
77725;BME280;66892;53.236;6.550;2023-11-22T08:15:11;103163.47;;;1.79;100.00
77725;BME280;66892;53.236;6.550;2023-11-22T08:17:42;103166.69;;;1.88;100.00
77725;BME280;66892;53.236;6.550;2023-11-22T08:20:09;103172.81;;;1.88;100.00
77725;BME280;66892;53.236;6.550;2023-11-22T08:22:40;103179.25;;;1.93;100.00
77725;BME280;66892;53.236;6.550;2023-11-22T08:25:08;103178.53;;;1.96;100.00
77725;BME280;66892;53.236;6.550;2023-11-22T08:27:34;103177.69;;;1.95;100.00
77725;BME280;66892;53.236;6.550;2023-11-22T08:30:00;103182.28;;;1.99;100.00
77725;BME280;66892;53.236;6.550;2023-11-22T08:32:30;103165.81;;;2.00;100.00
77725;BME280;66892;53.236;6.550;2023-11-22T08:34:57;103161.41;;;1.99;100.00
77725;BME280;66892;53.236;6.550;2023-11-22T08:37:23;103145.53;;;1.96;100.00
77725;BME280;66892;53.236;6.550;2023-11-22T08:39:51;103144.88;;;1.99;100.00
77725;BME280;66892;53.236;6.550;2023-11-22T08:42:17;103129.50;;;2.03;100.00
77725;BME280;66892;53.236;6.550;2023-11-22T08:44:43;103131.41;;;2.06;100.00
77725;BME280;66892;53.236;6.550;2023-11-22T08:47:09;103145.69;;;2.11;100.00
77725;BME280;66892;53.236;6.550;2023-11-22T08:49:36;103141.47;;;2.13;100.00
77725;BME280;66892;53.236;6.550;2023-11-22T08:52:02;103135.88;;;2.20;100.00
77725;BME280;66892;53.236;6.550;2023-11-22T08:54:29;103139.59;;;2.24;100.00
77725;BME280;66892;53.236;6.550;2023-11-22T08:56:57;103146.72;;;2.26;100.00
77725;BME280;66892;53.236;6.550;2023-11-22T08:59:23;103141.59;;;2.28;100.00
77725;BME280;66892;53.236;6.550;2023-11-22T09:01:49;103142.47;;;2.28;100.00
77725;BME280;66892;53.236;6.550;2023-11-22T09:04:15;103137.47;;;2.31;100.00
77725;BME280;66892;53.236;6.550;2023-11-22T09:06:41;103137.59;;;2.33;100.00
77725;BME280;66892;53.236;6.550;2023-11-22T09:09:07;103130.75;;;2.35;100.00
77725;BME280;66892;53.236;6.550;2023-11-22T09:11:34;103137.06;;;2.38;100.00
77725;BME280;66892;53.236;6.550;2023-11-22T09:14:01;103134.59;;;2.40;100.00
77725;BME280;66892;53.236;6.550;2023-11-22T09:16:35;103139.81;;;2.40;100.00
77725;BME280;66892;53.236;6.550;2023-11-22T09:19:01;103133.66;;;2.39;100.00
77725;BME280;66892;53.236;6.550;2023-11-22T09:21:27;103136.81;;;2.47;100.00
77725;BME280;66892;53.236;6.550;2023-11-22T09:23:53;103139.50;;;2.48;100.00
77725;BME280;66892;53.236;6.550;2023-11-22T09:26:19;103144.91;;;2.51;100.00
77725;BME280;66892;53.236;6.550;2023-11-22T09:28:45;103139.88;;;2.54;100.00
77725;BME280;66892;53.236;6.550;2023-11-22T09:31:13;103145.44;;;2.59;100.00
77725;BME280;66892;53.236;6.550;2023-11-22T09:33:43;103144.72;;;2.61;100.00
77725;BME280;66892;53.236;6.550;2023-11-22T09:36:10;103145.22;;;2.69;100.00
77725;BME280;66892;53.236;6.550;2023-11-22T09:38:36;103147.66;;;2.66;100.00
77725;BME280;66892;53.236;6.550;2023-11-22T09:41:03;103139.38;;;2.73;100.00
77725;BME280;66892;53.236;6.550;2023-11-22T09:43:29;103132.75;;;2.78;100.00
77725;BME280;66892;53.236;6.550;2023-11-22T09:45:55;103127.94;;;2.84;100.00
77725;BME280;66892;53.236;6.550;2023-11-22T09:48:24;103117.84;;;2.90;100.00
77725;BME280;66892;53.236;6.550;2023-11-22T09:50:57;103112.03;;;2.94;100.00
77725;BME280;66892;53.236;6.550;2023-11-22T09:53:31;103107.38;;;3.03;100.00
77725;BME280;66892;53.236;6.550;2023-11-22T09:55:57;103105.94;;;3.08;100.00
77725;BME280;66892;53.236;6.550;2023-11-22T09:58:24;103110.56;;;3.12;100.00
77725;BME280;66892;53.236;6.550;2023-11-22T10:00:50;103113.28;;;3.14;100.00
77725;BME280;66892;53.236;6.550;2023-11-22T10:03:18;103111.59;;;3.14;100.00
77725;BME280;66892;53.236;6.550;2023-11-22T10:05:47;103107.72;;;3.23;100.00
77725;BME280;66892;53.236;6.550;2023-11-22T10:08:13;103115.03;;;3.28;100.00
77725;BME280;66892;53.236;6.550;2023-11-22T10:10:40;103123.78;;;3.29;100.00
77725;BME280;66892;53.236;6.550;2023-11-22T10:13:06;103129.03;;;3.29;100.00
77725;BME280;66892;53.236;6.550;2023-11-22T10:15:32;103117.94;;;3.33;100.00
77725;BME280;66892;53.236;6.550;2023-11-22T10:17:59;103131.59;;;3.42;100.00
77725;BME280;66892;53.236;6.550;2023-11-22T10:20:36;103124.53;;;3.41;100.00
77725;BME280;66892;53.236;6.550;2023-11-22T10:23:03;103140.22;;;3.41;100.00
77725;BME280;66892;53.236;6.550;2023-11-22T10:25:34;103138.09;;;3.48;100.00
77725;BME280;66892;53.236;6.550;2023-11-22T10:28:00;103136.16;;;3.59;100.00
77725;BME280;66892;53.236;6.550;2023-11-22T10:30:27;103125.06;;;3.63;100.00
77725;BME280;66892;53.236;6.550;2023-11-22T10:32:54;103126.50;;;3.72;100.00
77725;BME280;66892;53.236;6.550;2023-11-22T10:35:21;103112.81;;;3.77;100.00
77725;BME280;66892;53.236;6.550;2023-11-22T10:37:48;103097.47;;;3.83;100.00
77725;BME280;66892;53.236;6.550;2023-11-22T10:40:16;103070.78;;;3.88;100.00
77725;BME280;66892;53.236;6.550;2023-11-22T10:42:42;103051.00;;;3.93;100.00
77725;BME280;66892;53.236;6.550;2023-11-22T10:45:09;103037.19;;;3.96;100.00
77725;BME280;66892;53.236;6.550;2023-11-22T10:47:37;103014.47;;;3.95;100.00
77725;BME280;66892;53.236;6.550;2023-11-22T10:50:08;103001.91;;;3.89;100.00
77725;BME280;66892;53.236;6.550;2023-11-22T10:52:36;102995.16;;;3.78;100.00
77725;BME280;66892;53.236;6.550;2023-11-22T10:55:03;102970.97;;;3.67;100.00
77725;BME280;66892;53.236;6.550;2023-11-22T10:57:38;102984.50;;;3.60;100.00
77725;BME280;66892;53.236;6.550;2023-11-22T11:00:06;102967.91;;;3.60;100.00
77725;BME280;66892;53.236;6.550;2023-11-22T11:02:40;102952.66;;;3.67;100.00
77725;BME280;66892;53.236;6.550;2023-11-22T11:05:15;102953.94;;;3.74;100.00
77725;BME280;66892;53.236;6.550;2023-11-22T11:07:49;102948.66;;;3.89;100.00
77725;BME280;66892;53.236;6.550;2023-11-22T11:10:19;102952.53;;;3.95;100.00
77725;BME280;66892;53.236;6.550;2023-11-22T11:12:48;102948.03;;;3.93;100.00
77725;BME280;66892;53.236;6.550;2023-11-22T11:15:15;102958.44;;;3.91;100.00
77725;BME280;66892;53.236;6.550;2023-11-22T11:17:44;102965.63;;;3.95;100.00
77725;BME280;66892;53.236;6.550;2023-11-22T11:20:11;102967.03;;;4.05;100.00
77725;BME280;66892;53.236;6.550;2023-11-22T11:22:39;102950.75;;;4.25;100.00
77725;BME280;66892;53.236;6.550;2023-11-22T11:25:06;102946.78;;;4.48;100.00
77725;BME280;66892;53.236;6.550;2023-11-22T11:27:34;102935.72;;;4.69;100.00
77725;BME280;66892;53.236;6.550;2023-11-22T11:33:12;102944.06;;;4.95;100.00
77725;BME280;66892;53.236;6.550;2023-11-22T11:35:42;102935.34;;;4.94;100.00
77725;BME280;66892;53.236;6.550;2023-11-22T11:38:08;102942.31;;;4.94;100.00
77725;BME280;66892;53.236;6.550;2023-11-22T11:40:35;102939.91;;;4.98;100.00
77725;BME280;66892;53.236;6.550;2023-11-22T11:43:04;102928.91;;;5.05;100.00
77725;BME280;66892;53.236;6.550;2023-11-22T11:45:36;102919.75;;;5.13;100.00
77725;BME280;66892;53.236;6.550;2023-11-22T11:48:02;102920.06;;;5.19;100.00
77725;BME280;66892;53.236;6.550;2023-11-22T11:50:29;102913.91;;;5.19;100.00
77725;BME280;66892;53.236;6.550;2023-11-22T11:52:55;102922.84;;;5.22;100.00
77725;BME280;66892;53.236;6.550;2023-11-22T11:55:21;102911.69;;;5.26;100.00
77725;BME280;66892;53.236;6.550;2023-11-22T11:57:47;102915.63;;;5.18;100.00
77725;BME280;66892;53.236;6.550;2023-11-22T12:00:14;102920.72;;;5.15;100.00
77725;BME280;66892;53.236;6.550;2023-11-22T12:02:41;102904.66;;;5.09;100.00
77725;BME280;66892;53.236;6.550;2023-11-22T12:05:08;102898.63;;;5.10;100.00
77725;BME280;66892;53.236;6.550;2023-11-22T12:07:34;102882.53;;;5.04;100.00
77725;BME280;66892;53.236;6.550;2023-11-22T12:10:00;102883.22;;;5.00;100.00
77725;BME280;66892;53.236;6.550;2023-11-22T12:12:26;102889.13;;;4.96;100.00
77725;BME280;66892;53.236;6.550;2023-11-22T12:14:52;102883.13;;;4.99;100.00
77725;BME280;66892;53.236;6.550;2023-11-22T12:17:19;102876.47;;;5.05;100.00
77725;BME280;66892;53.236;6.550;2023-11-22T12:19:47;102871.56;;;4.95;100.00
77725;BME280;66892;53.236;6.550;2023-11-22T12:22:14;102869.88;;;4.96;100.00
77725;BME280;66892;53.236;6.550;2023-11-22T12:24:42;102868.91;;;4.94;100.00
77725;BME280;66892;53.236;6.550;2023-11-22T12:27:09;102875.09;;;4.96;100.00
77725;BME280;66892;53.236;6.550;2023-11-22T12:29:36;102857.50;;;4.93;100.00
77725;BME280;66892;53.236;6.550;2023-11-22T12:32:02;102850.59;;;4.95;100.00
77725;BME280;66892;53.236;6.550;2023-11-22T12:34:29;102845.97;;;4.90;100.00
77725;BME280;66892;53.236;6.550;2023-11-22T12:36:57;102846.06;;;4.91;100.00
77725;BME280;66892;53.236;6.550;2023-11-22T12:39:24;102845.81;;;4.87;100.00
77725;BME280;66892;53.236;6.550;2023-11-22T12:41:51;102848.28;;;4.84;100.00
77725;BME280;66892;53.236;6.550;2023-11-22T12:44:19;102848.16;;;4.82;100.00
77725;BME280;66892;53.236;6.550;2023-11-22T12:46:49;102841.47;;;4.87;100.00
77725;BME280;66892;53.236;6.550;2023-11-22T12:49:16;102838.84;;;4.87;100.00